Besuchen Sie unsere anderen Wetter Stationen:

Template documentation
and downloads

And another site


METAR-Meldungen aus der Umgebung


Warning: A non-numeric value encountered in /is/htdocs/wp10906056_0YHW7Q9XB7/www/weather28/metar/metarDisplay.php on line 166

Warning: A non-numeric value encountered in /is/htdocs/wp10906056_0YHW7Q9XB7/www/weather28/metar/metarDisplay.php on line 166

Warning: A non-numeric value encountered in /is/htdocs/wp10906056_0YHW7Q9XB7/www/weather28/metar/metarDisplay.php on line 166

Warning: A non-numeric value encountered in /is/htdocs/wp10906056_0YHW7Q9XB7/www/weather28/metar/metarDisplay.php on line 166
   
EHVK - Volkel Rnlafb, Netherlands
Entfernung von der Station bis: SW 18 km
Aktualisierung: 12-05-2021 23:25
Klar  
Klar  
   Wind: NO 7.4 km/h
Wind: NO 7.4 km/h
Temperatur: 10°C
Gefühlt: 9°C
Taupunkt: 8°C
Luftfeuchte: 88%
Luftdruck: 1010 hPa
Bewölkt: Klar
Sichtbarkeit: More than 10 km
Bewölkung: Klar
EHVK 122125Z AUTO 04004KT 9999 NCD 10/08 Q1010 BLU
EDLV - Niederrhein, Germany
Entfernung von der Station bis: SO 25 km
Aktualisierung: 12-05-2021 23:20
Klar  
Klar  
   Wind: variiert 1.9 km/h
Wind: variiert 1.9 km/h
Temperatur: 11°C
Taupunkt: 9°C
Luftfeuchte: 88%
Luftdruck: 1010 hPa
Sichtbarkeit: More than 10 km
Bewölkung: Klar
EDLV 122120Z VRB01KT CAVOK 11/09 Q1010
EHDL - Deelen Rnlafb, Netherlands
Entfernung von der Station bis: N 35 km
Aktualisierung: 12-05-2021 23:25
Stark bewölkt  
Stark bewölkt  
   Wind: variiert 1.9 km/h
Wind: variiert 1.9 km/h
Temperatur: 9°C
Taupunkt: 9°C
Luftfeuchte: 100%
Luftdruck: 1011 hPa
Bewölkt: Stark bewölkt
Sichtbarkeit: More than 10 km
Bewölkung: leicht bewölkt 2225 m,
Teilweise bewölkt 2377.4 m,
Stark bewölkt 2560.3 m
EHDL 122125Z AUTO VRB01KT 9999 FEW073 SCT078 BKN084 09/09 Q1011 BLU
EHEH - Eindhoven Rnlafb, Netherlands
Entfernung von der Station bis: SW 48 km
Aktualisierung: 12-05-2021 23:25
Klar  
Klar  
   Wind: NO 11.1 km/h
Wind: NO 11.1 km/h
Temperatur: 10°C
Gefühlt: 8°C
Taupunkt: 8°C
Luftfeuchte: 88%
Luftdruck: 1010 hPa
Bewölkt: Klar
Sichtbarkeit: More than 10 km
Bewölkung: Klar
EHEH 122125Z AUTO 05006KT 9999 NCD 10/08 Q1010 BLU
EHGR - Gilze-Rijen Rnla, Netherlands
Entfernung von der Station bis: WSW 70 km
Aktualisierung: 12-05-2021 23:35
Teilweise bewölkt  
Teilweise bewölkt  
   Wind: Osten 5.6 km/h
Wind: Osten 5.6 km/h
Temperatur: 8°C
Gefühlt: 7°C
Taupunkt: 8°C
Luftfeuchte: 100%
Luftdruck: 1010 hPa
Bewölkt: Teilweise bewölkt
Sichtbarkeit: More than 10 km
Bewölkung: Teilweise bewölkt 2255.5 m
EHGR 122135Z AUTO 09003KT 110V170 9999 SCT074 08/08 Q1010 BLU
EBBL - Kleine-Brogel(Ba, Belgium
Entfernung von der Station bis: SSW 71 km
Aktualisierung: 12-05-2021 23:25
Klar  
Klar  
   Wind: NO 5.6 km/h
Wind: NO 5.6 km/h
Temperatur: 9°C
Gefühlt: 8°C
Taupunkt: 7°C
Luftfeuchte: 87%
Luftdruck: 1010 hPa
Bewölkt: Klar
Sichtbarkeit: More than 10 km
Bewölkung: Klar
EBBL 122125Z AUTO 04003KT 9999 NCD 09/07 Q1010 BLU

Script entwickelt von  Saratoga-weather.org Angepasst für das Template von  Weerstation Leuven

Sie finden unser Wetter-Infos auch auf:

netzwerkwettercom

European Weather Network

WeatherCloud

Weather Underground

AWEKAS

Citizen Weather Observer Program (CWOP)

HAMweather, WeatherForYou, PWS Weather

Von uns verwendete Ausrüstung:

Wetterstation
Davis VP2

Wetterprogramm
Weather Display

Davis VP2

Weather Display